createdAt,value
2018-05-21T00:01:51.202Z,101626.52
2018-05-21T00:04:18.100Z,101628.14
2018-05-21T00:06:44.992Z,101625.55
2018-05-21T00:09:11.695Z,101624.20
2018-05-21T00:11:38.618Z,101620.70
2018-05-21T00:14:05.978Z,101620.96
2018-05-21T00:16:32.624Z,101622.69
2018-05-21T00:18:59.376Z,101620.77
2018-05-21T00:21:26.000Z,101619.70
2018-05-21T00:23:52.700Z,101614.48
2018-05-21T00:26:19.366Z,101617.33
2018-05-21T00:28:46.743Z,101614.95
2018-05-21T00:31:13.418Z,101614.39
2018-05-21T00:33:40.145Z,101614.53
2018-05-21T00:36:06.778Z,101613.91
2018-05-21T00:38:33.450Z,101613.88
2018-05-21T00:41:00.172Z,101609.84
2018-05-21T00:43:27.095Z,101605.62
2018-05-21T00:45:53.781Z,101595.89
2018-05-21T00:48:21.225Z,101608.80
2018-05-21T00:50:48.599Z,101604.62
2018-05-21T00:53:15.566Z,101607.77
2018-05-21T00:55:42.939Z,101606.02
2018-05-21T00:58:09.648Z,101600.27
2018-05-21T01:00:37.116Z,101595.83
2018-05-21T01:03:04.598Z,101601.52
2018-05-21T01:05:31.262Z,101601.84
2018-05-21T01:07:57.945Z,101598.24
2018-05-21T01:10:25.459Z,101601.30
2018-05-21T01:12:52.222Z,101595.55
2018-05-21T01:15:18.940Z,101598.42
2018-05-21T01:17:45.588Z,101596.72
2018-05-21T01:20:12.261Z,101602.64
2018-05-21T01:22:39.104Z,101600.72
2018-05-21T01:25:05.748Z,101594.29
2018-05-21T01:27:33.124Z,101595.50
2018-05-21T01:29:59.825Z,101587.73
2018-05-21T01:32:26.465Z,101588.41
2018-05-21T01:34:53.125Z,101588.00
2018-05-21T01:37:20.785Z,101586.55
2018-05-21T01:39:48.203Z,101588.38
2018-05-21T01:42:14.886Z,101590.27
2018-05-21T01:44:42.551Z,101592.16
2018-05-21T01:47:10.065Z,101593.45
2018-05-21T01:49:36.729Z,101590.43
2018-05-21T01:52:03.380Z,101590.38
2018-05-21T01:54:30.765Z,101583.06
2018-05-21T01:56:57.389Z,101578.96
2018-05-21T01:59:24.014Z,101582.31
2018-05-21T02:01:51.401Z,101580.02
2018-05-21T02:04:18.077Z,101580.28
2018-05-21T02:06:44.716Z,101570.46
2018-05-21T02:09:11.336Z,101566.75
2018-05-21T02:11:38.036Z,101568.65
2018-05-21T02:14:05.604Z,101569.71
2018-05-21T02:16:32.277Z,101570.46
2018-05-21T02:18:59.092Z,101572.73
2018-05-21T02:21:25.761Z,101565.53
2018-05-21T02:23:52.541Z,101562.05
2018-05-21T02:26:20.012Z,101562.45
2018-05-21T02:28:47.423Z,101562.80
2018-05-21T02:31:14.170Z,101558.39
2018-05-21T02:33:40.808Z,101553.27
2018-05-21T02:36:07.612Z,101557.69
2018-05-21T02:38:34.265Z,101553.86
2018-05-21T02:41:00.893Z,101553.59
2018-05-21T02:43:27.658Z,101555.52
2018-05-21T02:45:54.421Z,101554.65
2018-05-21T02:48:21.074Z,101552.03
2018-05-21T02:50:47.924Z,101554.27
2018-05-21T02:53:15.388Z,101544.82
2018-05-21T02:55:43.000Z,101541.13
2018-05-21T02:58:09.765Z,101542.98
2018-05-21T03:00:36.369Z,101534.94
2018-05-21T03:03:03.151Z,101534.53
2018-05-21T03:05:29.948Z,101533.73
2018-05-21T03:07:56.660Z,101540.45
2018-05-21T03:10:24.212Z,101536.02
2018-05-21T03:12:51.740Z,101531.89
2018-05-21T03:15:18.404Z,101532.84
2018-05-21T03:17:45.865Z,101539.69
2018-05-21T03:20:13.303Z,101537.38
2018-05-21T03:22:39.901Z,101535.28
2018-05-21T03:25:06.674Z,101540.70
2018-05-21T03:27:33.338Z,101534.22
2018-05-21T03:30:00.718Z,101536.75
2018-05-21T03:32:27.503Z,101540.89
2018-05-21T03:34:54.324Z,101539.27
2018-05-21T03:37:21.132Z,101548.25
2018-05-21T03:39:48.538Z,101536.42
2018-05-21T03:42:15.227Z,101543.88
2018-05-21T03:44:41.941Z,101544.62
2018-05-21T03:47:08.822Z,101549.30
2018-05-21T03:49:35.493Z,101553.13
2018-05-21T03:52:02.357Z,101551.44
2018-05-21T03:54:29.023Z,101547.11
2018-05-21T03:56:56.422Z,101549.77
2018-05-21T03:59:41.421Z,101546.88
2018-05-21T04:05:14.876Z,101539.31
2018-05-21T04:07:41.694Z,101545.44
2018-05-21T04:10:08.354Z,101547.08
2018-05-21T04:12:35.738Z,101545.84
2018-05-21T04:15:02.411Z,101540.39
2018-05-21T04:17:29.034Z,101534.67
2018-05-21T04:19:55.729Z,101537.30
2018-05-21T04:22:23.768Z,101531.28
2018-05-21T04:24:50.403Z,101533.53
2018-05-21T04:27:17.128Z,101532.41
2018-05-21T04:29:43.776Z,101532.00
2018-05-21T04:32:10.485Z,101530.36
2018-05-21T04:34:37.434Z,101526.13
2018-05-21T04:37:04.088Z,101521.54
2018-05-21T04:39:30.738Z,101522.47
2018-05-21T04:41:57.565Z,101522.19
2018-05-21T04:44:24.199Z,101520.08
2018-05-21T04:46:50.871Z,101522.97
2018-05-21T04:49:18.451Z,101517.21
2018-05-21T04:51:45.850Z,101512.86
2018-05-21T04:54:13.366Z,101519.22
2018-05-21T04:56:40.786Z,101520.55
2018-05-21T04:59:07.441Z,101514.98
2018-05-21T05:01:34.800Z,101510.38
2018-05-21T05:04:02.103Z,101513.47
2018-05-21T05:06:29.677Z,101516.34
2018-05-21T05:08:56.554Z,101511.37
2018-05-21T05:11:23.392Z,101508.96
2018-05-21T05:13:50.103Z,101505.28
2018-05-21T05:16:16.773Z,101511.20
2018-05-21T05:18:44.899Z,101514.38
2018-05-21T05:21:11.686Z,101509.03
2018-05-21T05:23:38.522Z,101507.52
2018-05-21T05:26:05.202Z,101509.48
2018-05-21T05:28:32.628Z,101503.74
2018-05-21T05:30:59.372Z,101494.30
2018-05-21T05:33:26.201Z,101489.30
2018-05-21T05:35:52.935Z,101490.66
2018-05-21T05:38:20.256Z,101488.90
2018-05-21T05:40:46.902Z,101487.36
2018-05-21T05:43:13.734Z,101494.03
2018-05-21T05:45:40.415Z,101481.68
2018-05-21T05:48:07.073Z,101489.50
2018-05-21T05:50:33.725Z,101491.00
2018-05-21T05:53:00.574Z,101484.67
2018-05-21T05:55:27.948Z,101480.47
2018-05-21T05:57:54.627Z,101480.50
2018-05-21T06:00:21.255Z,101484.52
2018-05-21T06:02:47.961Z,101475.72
2018-05-21T06:05:15.467Z,101479.41
2018-05-21T06:07:42.090Z,101473.02
2018-05-21T06:10:09.558Z,101479.59
2018-05-21T06:12:36.283Z,101475.00
2018-05-21T06:15:03.147Z,101475.56
2018-05-21T06:17:29.792Z,101476.55
2018-05-21T06:19:56.578Z,101476.84
2018-05-21T06:22:23.945Z,101476.22
2018-05-21T06:24:50.639Z,101471.28
2018-05-21T06:27:17.265Z,101467.45
2018-05-21T06:29:43.968Z,101465.16
2018-05-21T06:32:10.768Z,101466.45
2018-05-21T06:34:37.515Z,101464.47
2018-05-21T06:37:04.220Z,101463.08
2018-05-21T06:39:30.861Z,101460.12
2018-05-21T06:41:57.735Z,101462.63
2018-05-21T06:44:24.453Z,101459.11
2018-05-21T06:46:51.132Z,101463.38
2018-05-21T06:49:18.604Z,101457.13
2018-05-21T06:51:45.248Z,101456.76
2018-05-21T06:54:11.940Z,101459.06
2018-05-21T06:56:39.306Z,101448.77
2018-05-21T06:59:06.170Z,101442.14
2018-05-21T07:01:33.537Z,101449.86
2018-05-21T07:04:00.225Z,101444.58
2018-05-21T07:06:26.854Z,101443.30
2018-05-21T07:08:53.527Z,101446.35
2018-05-21T07:11:20.156Z,101440.66
2018-05-21T07:13:47.012Z,101445.03
2018-05-21T07:16:14.407Z,101444.85
2018-05-21T07:18:41.132Z,101436.33
2018-05-21T07:21:08.400Z,101438.42
2018-05-21T07:23:35.364Z,101429.34
2018-05-21T07:26:02.012Z,101429.25
2018-05-21T07:28:28.774Z,101419.61
2018-05-21T07:30:55.453Z,101422.70
2018-05-21T07:33:22.084Z,101422.05
2018-05-21T07:35:49.453Z,101412.16
2018-05-21T07:38:16.207Z,101409.79
2018-05-21T07:40:42.836Z,101402.52
2018-05-21T07:43:09.559Z,101403.73
2018-05-21T07:45:37.055Z,101399.08
2018-05-21T07:48:03.678Z,101398.78
2018-05-21T07:50:30.326Z,101397.41
2018-05-21T07:52:57.076Z,101405.95
2018-05-21T07:55:23.706Z,101400.69
2018-05-21T07:57:50.368Z,101397.20
2018-05-21T08:00:17.019Z,101392.97
2018-05-21T08:02:43.704Z,101396.66
2018-05-21T08:05:10.537Z,101397.64
2018-05-21T08:07:37.165Z,101396.55
2018-05-21T08:10:04.562Z,101396.58
2018-05-21T08:12:31.227Z,101402.36
2018-05-21T08:14:57.908Z,101394.48
2018-05-21T08:17:25.330Z,101388.55
2018-05-21T08:19:51.960Z,101386.57
2018-05-21T08:22:18.751Z,101380.72
2018-05-21T08:24:46.327Z,101383.98
2018-05-21T08:27:13.010Z,101380.70
2018-05-21T08:29:39.684Z,101372.72
2018-05-21T08:32:07.217Z,101377.30
2018-05-21T08:34:33.861Z,101374.78
2018-05-21T08:37:01.324Z,101368.84
2018-05-21T08:39:28.721Z,101377.28
2018-05-21T08:41:55.405Z,101369.19
2018-05-21T08:44:22.861Z,101371.81
2018-05-21T08:46:50.394Z,101364.81
2018-05-21T08:49:17.189Z,101363.35
2018-05-21T08:51:44.652Z,101350.88
2018-05-21T08:54:12.075Z,101357.01
2018-05-21T08:56:40.257Z,101359.11
2018-05-21T08:59:06.875Z,101346.14
2018-05-21T09:01:33.586Z,101350.46
2018-05-21T09:04:00.245Z,101343.45
2018-05-21T09:06:26.953Z,101344.78
2018-05-21T09:08:53.637Z,101345.37
2018-05-21T09:11:20.300Z,101333.44
2018-05-21T09:13:47.677Z,101331.81
2018-05-21T09:16:14.395Z,101332.39
2018-05-21T09:18:41.008Z,101325.89
2018-05-21T09:21:07.685Z,101323.06
2018-05-21T09:23:35.143Z,101318.97
2018-05-21T09:26:02.613Z,101311.41
2018-05-21T09:28:30.150Z,101315.25
2018-05-21T09:30:57.790Z,101312.01
2018-05-21T09:33:24.404Z,101303.81
2018-05-21T09:35:51.033Z,101307.77
2018-05-21T09:38:17.802Z,101305.34
2018-05-21T09:40:44.466Z,101310.17
2018-05-21T09:43:11.861Z,101313.05
2018-05-21T09:45:38.517Z,101303.25
2018-05-21T09:48:05.251Z,101291.88
2018-05-21T09:50:31.901Z,101298.44
2018-05-21T09:52:58.604Z,101304.41
2018-05-21T09:55:25.225Z,101291.01
2018-05-21T09:57:52.576Z,101292.16
2018-05-21T10:00:19.252Z,101290.00
2018-05-21T10:02:45.981Z,101293.73
2018-05-21T10:05:12.644Z,101292.81
2018-05-21T10:07:39.412Z,101289.12
2018-05-21T10:10:06.524Z,101279.16
2018-05-21T10:14:56.273Z,101279.02
2018-05-21T10:17:22.905Z,101277.45
2018-05-21T10:19:49.537Z,101280.83
2018-05-21T10:22:16.383Z,101273.73
2018-05-21T10:24:43.024Z,101269.08
2018-05-21T10:27:09.740Z,101263.59
2018-05-21T10:29:36.728Z,101264.67
2018-05-21T10:32:07.272Z,101269.11
2018-05-21T10:34:33.888Z,101263.80
2018-05-21T10:37:01.409Z,101257.03
2018-05-21T10:39:28.070Z,101253.94
2018-05-21T10:41:54.740Z,101260.98
2018-05-21T10:44:22.139Z,101244.38
2018-05-21T10:46:48.900Z,101244.02
2018-05-21T10:49:15.969Z,101246.08
2018-05-21T10:51:43.425Z,101237.41
2018-05-21T10:54:10.112Z,101237.14
2018-05-21T10:56:37.022Z,101232.47
2018-05-21T10:59:03.853Z,101230.36
2018-05-21T11:01:37.449Z,101221.88
2018-05-21T11:04:05.288Z,101222.09
2018-05-21T11:06:32.404Z,101222.86
2018-05-21T11:08:59.087Z,101219.41
2018-05-21T11:11:25.739Z,101216.25
2018-05-21T11:13:52.648Z,101207.90
2018-05-21T11:16:19.421Z,101208.48
2018-05-21T11:18:46.288Z,101199.45
2018-05-21T11:21:14.085Z,101191.31
2018-05-21T11:23:41.038Z,101189.64
2018-05-21T11:26:07.757Z,101194.28
2018-05-21T11:28:34.914Z,101185.53
2018-05-21T11:31:01.854Z,101194.48
2018-05-21T11:33:28.552Z,101190.78
2018-05-21T11:35:55.626Z,101180.00
2018-05-21T11:38:23.540Z,101184.64
2018-05-21T11:40:50.551Z,101179.04
2018-05-21T11:43:17.968Z,101173.90
2018-05-21T11:45:46.223Z,101168.30
2018-05-21T11:48:13.813Z,101160.82
2018-05-21T11:50:40.811Z,101160.47
2018-05-21T11:53:07.534Z,101155.64
2018-05-21T11:55:36.108Z,101150.86
2018-05-21T11:58:05.530Z,101141.91
2018-05-21T12:00:33.542Z,101152.77
2018-05-21T12:03:00.222Z,101149.45
2018-05-21T12:05:27.629Z,101133.05
2018-05-21T12:07:54.721Z,101136.50
2018-05-21T12:10:23.875Z,101136.30
2018-05-21T12:12:50.677Z,101126.86
2018-05-21T12:15:17.417Z,101121.39
2018-05-21T12:17:45.105Z,101128.87
2018-05-21T12:20:11.773Z,101110.36
2018-05-21T12:22:38.426Z,101110.48
2018-05-21T12:25:05.145Z,101105.72
2018-05-21T12:27:31.809Z,101109.36
2018-05-21T12:29:58.495Z,101108.06
2018-05-21T12:32:25.249Z,101102.67
2018-05-21T12:34:51.924Z,101105.81
2018-05-21T12:37:18.575Z,101103.39
2018-05-21T12:39:46.386Z,101094.59
2018-05-21T12:42:13.128Z,101093.25
2018-05-21T12:44:39.881Z,101090.98
2018-05-21T12:47:06.638Z,101098.20
2018-05-21T12:49:33.261Z,101098.64
2018-05-21T12:51:59.892Z,101089.20
2018-05-21T12:54:26.596Z,101086.98
2018-05-21T12:56:54.009Z,101080.96
2018-05-21T12:59:20.675Z,101090.56
2018-05-21T13:01:48.077Z,101088.96
2018-05-21T13:04:14.734Z,101085.47
2018-05-21T13:06:41.426Z,101082.61
2018-05-21T13:09:08.885Z,101083.95
2018-05-21T13:11:36.737Z,101078.66
2018-05-21T13:14:06.100Z,101075.66
2018-05-21T13:16:32.769Z,101071.17
2018-05-21T13:18:59.502Z,101081.41
2018-05-21T13:21:26.710Z,101068.13
2018-05-21T13:23:53.605Z,101068.92
2018-05-21T13:26:20.302Z,101062.59
2018-05-21T13:28:48.612Z,101068.22
2018-05-21T13:31:15.687Z,101073.02
2018-05-21T13:33:43.471Z,101061.81
2018-05-21T13:36:10.105Z,101057.05
2018-05-21T13:38:37.854Z,101050.70
2018-05-21T13:41:05.035Z,101045.45
2018-05-21T13:43:31.825Z,101041.38
2018-05-21T13:45:58.716Z,101040.86
2018-05-21T13:48:25.797Z,101036.80
2018-05-21T13:50:52.509Z,101033.73
2018-05-21T13:53:19.350Z,101031.83
2018-05-21T13:55:46.466Z,101028.62
2018-05-21T13:58:15.203Z,101025.62
2018-05-21T14:00:42.723Z,101025.25
2018-05-21T14:03:10.160Z,101021.31
2018-05-21T14:05:37.545Z,101007.67
2018-05-21T14:08:05.672Z,101012.86
2018-05-21T14:10:32.354Z,101002.98
2018-05-21T14:12:59.760Z,100999.11
2018-05-21T14:15:26.959Z,101001.16
2018-05-21T14:17:54.527Z,101000.88
2018-05-21T14:20:21.933Z,100997.53
2018-05-21T14:22:48.875Z,100993.73
2018-05-21T14:25:16.157Z,100994.09
2018-05-21T14:27:42.782Z,100996.73
2018-05-21T14:30:09.912Z,100989.37
2018-05-21T14:32:38.596Z,100996.61
2018-05-21T14:35:06.861Z,100988.34
2018-05-21T14:37:34.010Z,100985.13
2018-05-21T14:40:00.693Z,100983.67
2018-05-21T14:42:27.864Z,100973.20
2018-05-21T14:44:55.656Z,100978.09
2018-05-21T14:47:22.317Z,100979.08
2018-05-21T14:49:49.549Z,100967.61
2018-05-21T14:52:16.463Z,100960.62
2018-05-21T14:54:43.082Z,100958.05
2018-05-21T14:57:10.788Z,100950.20
2018-05-21T14:59:38.424Z,100960.41
2018-05-21T15:02:05.136Z,100957.56
2018-05-21T15:04:32.525Z,100950.67
2018-05-21T15:07:00.706Z,100951.13
2018-05-21T15:09:28.677Z,100954.17
2018-05-21T15:11:59.346Z,100944.75
2018-05-21T15:14:26.433Z,100947.56
2018-05-21T15:16:53.266Z,100939.01
2018-05-21T15:19:20.679Z,100938.36
2018-05-21T15:21:47.953Z,100944.02
2018-05-21T15:24:14.712Z,100931.52
2018-05-21T15:26:41.352Z,100928.44
2018-05-21T15:29:08.211Z,100929.42
2018-05-21T15:31:34.858Z,100928.79
2018-05-21T15:34:02.223Z,100914.38
2018-05-21T15:36:30.043Z,100918.05
2018-05-21T15:38:57.097Z,100904.63
2018-05-21T15:41:23.800Z,100915.21
2018-05-21T15:43:51.585Z,100916.15
2018-05-21T15:46:18.533Z,100917.11
2018-05-21T15:48:45.383Z,100921.36
2018-05-21T15:51:12.751Z,100921.53
2018-05-21T15:53:39.584Z,100920.38
2018-05-21T15:56:06.245Z,100917.98
2018-05-21T15:58:32.902Z,100909.42
2018-05-21T16:01:00.849Z,100911.02
2018-05-21T16:03:27.828Z,100905.00
2018-05-21T16:05:55.269Z,100904.42
2018-05-21T16:08:21.971Z,100898.77
2018-05-21T16:10:49.190Z,100903.28
2018-05-21T16:13:17.007Z,100897.97
2018-05-21T16:15:43.861Z,100902.87
2018-05-21T16:18:10.525Z,100907.20
2018-05-21T16:20:37.952Z,100900.94
2018-05-21T16:23:04.761Z,100905.66
2018-05-21T16:25:31.403Z,100905.98
2018-05-21T16:27:58.181Z,100910.22
2018-05-21T16:30:24.836Z,100907.66
2018-05-21T16:32:52.488Z,100904.08
2018-05-21T16:35:19.701Z,100912.61
2018-05-21T16:37:46.397Z,100908.43
2018-05-21T16:40:13.813Z,100906.95
2018-05-21T16:42:42.292Z,100911.09
2018-05-21T16:45:08.988Z,100917.39
2018-05-21T16:47:36.453Z,100913.73
2018-05-21T16:50:03.122Z,100913.09
2018-05-21T16:52:29.928Z,100914.09
2018-05-21T16:54:56.647Z,100906.83
2018-05-21T16:57:23.313Z,100912.72
2018-05-21T16:59:50.380Z,100915.17
2018-05-21T17:02:17.126Z,100917.28
2018-05-21T17:04:43.897Z,100912.34
2018-05-21T17:07:10.561Z,100912.85
2018-05-21T17:09:38.001Z,100910.15
2018-05-21T17:12:04.666Z,100901.10
2018-05-21T17:14:33.206Z,100905.37
2018-05-21T17:17:00.042Z,100897.61
2018-05-21T17:19:26.736Z,100901.37
2018-05-21T17:21:54.192Z,100899.41
2018-05-21T17:24:21.629Z,100899.35
2018-05-21T17:26:48.551Z,100904.02
2018-05-21T17:29:15.794Z,100901.83
2018-05-21T17:31:42.545Z,100905.52
2018-05-21T17:34:09.201Z,100901.00
2018-05-21T17:36:37.357Z,100899.33
2018-05-21T17:39:04.975Z,100895.64
2018-05-21T17:41:31.748Z,100898.00
2018-05-21T17:43:58.412Z,100896.09
2018-05-21T17:46:25.146Z,100899.80
2018-05-21T17:48:53.391Z,100899.42
2018-05-21T17:51:20.237Z,100899.03
2018-05-21T17:53:46.957Z,100903.23
2018-05-21T17:56:15.492Z,100902.86
2018-05-21T17:58:44.965Z,100904.03
2018-05-21T18:01:11.862Z,100903.96
2018-05-21T18:03:39.841Z,100905.81
2018-05-21T18:06:07.418Z,100909.39
2018-05-21T18:08:34.795Z,100911.32
2018-05-21T18:11:01.504Z,100914.60
2018-05-21T18:13:31.016Z,100911.80
2018-05-21T18:15:57.882Z,100910.72
2018-05-21T18:18:24.729Z,100906.02
2018-05-21T18:20:52.077Z,100907.89
2018-05-21T18:23:18.737Z,100908.25
2018-05-21T18:25:45.913Z,100911.23
2018-05-21T18:28:12.569Z,100910.53
2018-05-21T18:30:40.151Z,100909.95
2018-05-21T18:33:07.781Z,100910.06
2018-05-21T18:35:36.282Z,100907.75
2018-05-21T18:38:03.749Z,100907.67
2018-05-21T18:40:30.444Z,100904.36
2018-05-21T18:42:57.579Z,100908.19
2018-05-21T18:45:24.238Z,100902.15
2018-05-21T18:47:51.074Z,100905.64
2018-05-21T18:50:17.804Z,100903.05
2018-05-21T18:52:45.057Z,100905.58
2018-05-21T18:55:11.746Z,100903.91
2018-05-21T18:57:39.157Z,100903.78
2018-05-21T19:00:06.615Z,100896.80
2018-05-21T19:02:33.433Z,100904.00
2018-05-21T19:05:00.158Z,100901.14
2018-05-21T19:07:26.851Z,100897.59
2018-05-21T19:09:53.543Z,100902.66
2018-05-21T19:12:20.446Z,100902.77
2018-05-21T19:14:47.735Z,100902.06
2018-05-21T19:17:14.450Z,100895.22
2018-05-21T19:19:42.025Z,100910.21
2018-05-21T19:22:09.939Z,100907.42
2018-05-21T19:24:36.635Z,100903.92
2018-05-21T19:27:04.734Z,100903.41
2018-05-21T19:29:31.425Z,100905.27
2018-05-21T19:32:00.372Z,100901.22
2018-05-21T19:34:27.042Z,100910.27
2018-05-21T19:36:54.485Z,100912.81
2018-05-21T19:39:21.767Z,100911.13
2018-05-21T19:41:49.923Z,100912.74
2018-05-21T19:44:16.630Z,100915.02
2018-05-21T19:46:43.503Z,100920.55
2018-05-21T19:49:10.579Z,100925.48
2018-05-21T19:51:38.008Z,100922.13
2018-05-21T19:54:04.686Z,100920.77
2018-05-21T19:56:32.137Z,100929.05
2018-05-21T19:58:59.578Z,100929.88
2018-05-21T20:01:26.383Z,100932.88
2018-05-21T20:03:53.297Z,100935.45
2018-05-21T20:06:19.998Z,100938.72
2018-05-21T20:08:46.744Z,100929.28
2018-05-21T20:11:14.067Z,100931.66
2018-05-21T20:13:43.226Z,100931.55
2018-05-21T20:16:12.430Z,100930.70
2018-05-21T20:18:39.881Z,100929.12
2018-05-21T20:21:06.667Z,100929.63
2018-05-21T20:23:34.908Z,100927.61
2018-05-21T20:26:04.379Z,100926.00
2018-05-21T20:28:31.065Z,100930.33
2018-05-21T20:30:58.101Z,100933.95
2018-05-21T20:33:25.132Z,100935.13
2018-05-21T20:35:52.169Z,100935.50
2018-05-21T20:38:18.855Z,100937.20
2018-05-21T20:40:45.670Z,100926.88
2018-05-21T20:43:12.455Z,100931.36
2018-05-21T20:45:39.192Z,100933.75
2018-05-21T20:48:05.987Z,100927.45
2018-05-21T20:50:33.968Z,100933.22
2018-05-21T20:53:00.726Z,100929.65
2018-05-21T20:55:27.388Z,100933.06
2018-05-21T20:57:54.105Z,100934.06
2018-05-21T21:00:20.792Z,100941.31
2018-05-21T21:02:48.288Z,100938.10
2018-05-21T21:05:14.913Z,100950.20
2018-05-21T21:07:42.342Z,100966.27
2018-05-21T21:10:09.099Z,100990.13
2018-05-21T21:12:36.633Z,101007.09
2018-05-21T21:15:03.309Z,101010.73
2018-05-21T21:17:30.801Z,100998.44
2018-05-21T21:19:57.473Z,101000.99
2018-05-21T21:22:24.164Z,101007.55
2018-05-21T21:24:50.859Z,101006.12
2018-05-21T21:27:17.622Z,100998.46
2018-05-21T21:29:45.034Z,101005.61
2018-05-21T21:32:11.806Z,101000.98
2018-05-21T21:34:38.445Z,101000.64
2018-05-21T21:37:05.229Z,101000.11
2018-05-21T21:39:31.939Z,100998.26
2018-05-21T21:41:59.345Z,101003.77
2018-05-21T21:44:26.066Z,101004.78
2018-05-21T21:46:52.898Z,100996.30
2018-05-21T21:49:19.567Z,100999.77
2018-05-21T21:51:46.256Z,100997.44
2018-05-21T21:54:13.649Z,100994.75
2018-05-21T21:56:40.404Z,100989.03
2018-05-21T21:59:07.062Z,100988.97
2018-05-21T22:01:33.755Z,100984.52
2018-05-21T22:04:00.468Z,100992.87
2018-05-21T22:06:27.982Z,100982.95
2018-05-21T22:08:54.622Z,100981.84
2018-05-21T22:11:21.387Z,100982.59
2018-05-21T22:13:48.048Z,100978.94
2018-05-21T22:16:15.433Z,100975.98
2018-05-21T22:18:42.139Z,100973.09
2018-05-21T22:21:08.800Z,100979.30
2018-05-21T22:23:35.429Z,100972.87
2018-05-21T22:26:02.852Z,100963.28
2018-05-21T22:28:30.241Z,100974.54
2018-05-21T22:30:57.702Z,100971.95
2018-05-21T22:33:25.085Z,100974.05
2018-05-21T22:35:51.718Z,100974.72
2018-05-21T22:38:18.373Z,100973.66
2018-05-21T22:40:45.019Z,100976.64
2018-05-21T22:43:11.907Z,100975.92
2018-05-21T22:45:39.300Z,100973.02
2018-05-21T22:48:05.953Z,100975.48
2018-05-21T22:50:32.726Z,100982.30
2018-05-21T22:52:59.382Z,100976.78
2018-05-21T22:55:26.919Z,100974.88
2018-05-21T22:57:53.557Z,100967.25
2018-05-21T23:00:20.258Z,100963.69
2018-05-21T23:02:46.888Z,100963.56
2018-05-21T23:05:13.766Z,100967.06
2018-05-21T23:07:40.401Z,100962.94
2018-05-21T23:10:07.020Z,100970.62
2018-05-21T23:12:33.724Z,100974.14
2018-05-21T23:15:01.222Z,100978.81
2018-05-21T23:17:27.854Z,100980.91
2018-05-21T23:19:54.644Z,100981.11
2018-05-21T23:22:21.396Z,100973.69
2018-05-21T23:24:48.766Z,100973.08
2018-05-21T23:27:16.133Z,100970.17
2018-05-21T23:29:42.798Z,100967.11
2018-05-21T23:32:09.518Z,100973.28
2018-05-21T23:34:36.147Z,100969.13
2018-05-21T23:37:03.077Z,100971.44
2018-05-21T23:39:30.474Z,100961.84
2018-05-21T23:41:57.211Z,100963.16
2018-05-21T23:44:23.881Z,100967.33
2018-05-21T23:46:50.525Z,100966.48
2018-05-21T23:49:17.250Z,100955.05
2018-05-21T23:51:43.891Z,100955.99
2018-05-21T23:54:10.672Z,100955.50
2018-05-21T23:56:38.057Z,100953.48
2018-05-21T23:59:04.714Z,100952.80
